createdAt,value
2023-04-26T00:00:46.642Z,4.00
2023-04-26T00:03:15.918Z,3.40
2023-04-26T00:05:47.214Z,3.63
2023-04-26T00:08:17.064Z,3.20
2023-04-26T00:10:46.291Z,3.70
2023-04-26T00:13:15.736Z,3.53
2023-04-26T00:15:45.429Z,3.53
2023-04-26T00:18:16.126Z,3.43
2023-04-26T00:20:47.550Z,4.10
2023-04-26T00:23:17.649Z,3.70
2023-04-26T00:25:50.026Z,3.20
2023-04-26T00:28:22.392Z,3.90
2023-04-26T00:31:01.848Z,3.53
2023-04-26T00:33:31.143Z,3.93
2023-04-26T00:36:01.771Z,3.70
2023-04-26T00:38:34.707Z,3.27
2023-04-26T00:41:06.159Z,4.03
2023-04-26T00:43:36.035Z,3.57
2023-04-26T00:46:07.003Z,4.20
2023-04-26T00:48:37.522Z,4.00
2023-04-26T00:51:10.123Z,4.43
2023-04-26T00:53:39.628Z,3.90
2023-04-26T00:56:11.894Z,3.90
2023-04-26T00:58:43.645Z,3.77
2023-04-26T01:01:13.753Z,4.33
2023-04-26T01:03:57.074Z,4.47
2023-04-26T01:06:32.033Z,3.63
2023-04-26T01:09:06.124Z,3.93
2023-04-26T01:11:37.456Z,4.00
2023-04-26T01:14:08.851Z,4.20
2023-04-26T01:16:38.939Z,4.43
2023-04-26T01:19:13.285Z,4.10
2023-04-26T01:21:44.813Z,4.63
2023-04-26T01:24:22.866Z,4.17
2023-04-26T01:26:56.012Z,4.07
2023-04-26T01:29:25.775Z,4.17
2023-04-26T01:31:56.785Z,4.07
2023-04-26T01:34:33.318Z,4.73
2023-04-26T01:37:03.364Z,5.03
2023-04-26T01:39:33.854Z,4.80
2023-04-26T01:42:06.534Z,4.23
2023-04-26T01:44:36.021Z,4.00
2023-04-26T01:47:07.629Z,3.93
2023-04-26T01:49:37.515Z,4.33
2023-04-26T01:52:07.320Z,4.13
2023-04-26T01:54:38.146Z,4.60
2023-04-26T01:57:08.069Z,3.90
2023-04-26T01:59:38.452Z,3.83
2023-04-26T02:02:08.067Z,3.77
2023-04-26T02:04:39.096Z,3.80
2023-04-26T02:07:09.388Z,4.00
2023-04-26T02:09:44.321Z,4.27
2023-04-26T02:12:14.244Z,3.47
2023-04-26T02:14:43.647Z,4.20
2023-04-26T02:17:13.384Z,3.90
2023-04-26T02:19:42.906Z,3.60
2023-04-26T02:22:14.826Z,3.97
2023-04-26T02:24:53.668Z,3.73
2023-04-26T02:27:23.546Z,3.73
2023-04-26T02:29:55.785Z,4.17
2023-04-26T02:32:28.354Z,4.10
2023-04-26T02:35:00.207Z,4.07
2023-04-26T02:37:32.599Z,3.73
2023-04-26T02:40:06.355Z,3.70
2023-04-26T02:42:36.245Z,3.90
2023-04-26T02:45:09.439Z,3.93
2023-04-26T02:47:39.382Z,3.40
2023-04-26T02:50:13.689Z,4.50
2023-04-26T02:52:43.431Z,4.00
2023-04-26T02:55:15.085Z,3.63
2023-04-26T02:57:44.305Z,4.13
2023-04-26T03:00:17.298Z,3.63
2023-04-26T03:02:47.167Z,3.43
2023-04-26T03:05:16.713Z,3.37
2023-04-26T03:07:46.891Z,4.00
2023-04-26T03:10:21.251Z,3.93
2023-04-26T03:12:52.195Z,3.60
2023-04-26T03:15:22.182Z,3.53
2023-04-26T03:17:53.028Z,4.03
2023-04-26T03:20:23.560Z,4.07
2023-04-26T03:22:54.531Z,3.53
2023-04-26T03:25:25.961Z,3.63
2023-04-26T03:27:56.612Z,3.83
2023-04-26T03:30:27.157Z,4.10
2023-04-26T03:33:02.590Z,3.67
2023-04-26T03:35:32.061Z,3.50
2023-04-26T03:38:04.790Z,3.63
2023-04-26T03:40:35.261Z,3.40
2023-04-26T03:43:06.027Z,3.37
2023-04-26T03:45:36.169Z,4.10
2023-04-26T03:48:07.280Z,3.10
2023-04-26T03:50:36.684Z,4.30
2023-04-26T03:53:07.110Z,3.80
2023-04-26T03:55:38.560Z,3.40
2023-04-26T03:58:08.696Z,3.57
2023-04-26T04:00:44.181Z,3.47
2023-04-26T04:03:16.403Z,3.60
2023-04-26T04:05:46.196Z,3.40
2023-04-26T04:08:16.172Z,3.77
2023-04-26T04:10:47.633Z,3.53
2023-04-26T04:13:17.737Z,3.40
2023-04-26T04:15:48.497Z,3.37
2023-04-26T04:18:23.931Z,3.87
2023-04-26T04:20:54.072Z,3.97
2023-04-26T04:23:24.252Z,3.90
2023-04-26T04:25:58.236Z,4.07
2023-04-26T04:28:27.997Z,3.50
2023-04-26T04:30:58.626Z,3.70
2023-04-26T04:33:36.933Z,3.97
2023-04-26T04:36:07.002Z,5.53
2023-04-26T04:38:36.398Z,4.20
2023-04-26T04:41:08.723Z,4.10
2023-04-26T04:43:37.686Z,3.70
2023-04-26T04:46:15.470Z,3.60
2023-04-26T04:48:44.620Z,3.50
2023-04-26T04:51:14.486Z,3.33
2023-04-26T04:53:44.816Z,4.40
2023-04-26T04:56:20.912Z,3.40
2023-04-26T04:58:52.026Z,3.03
2023-04-26T05:01:29.150Z,3.13
2023-04-26T05:03:58.848Z,2.93
2023-04-26T05:06:30.025Z,3.20
2023-04-26T05:08:59.901Z,2.57
2023-04-26T05:11:38.762Z,2.83
2023-04-26T05:14:08.493Z,3.20
2023-04-26T05:16:38.890Z,2.83
2023-04-26T05:19:09.775Z,2.87
2023-04-26T05:21:38.851Z,2.90
2023-04-26T05:24:07.852Z,3.00
2023-04-26T05:26:40.827Z,3.17
2023-04-26T05:29:13.262Z,2.70
2023-04-26T05:31:42.848Z,2.70
2023-04-26T05:34:13.278Z,2.77
2023-04-26T05:36:42.653Z,2.77
2023-04-26T05:39:15.089Z,2.73
2023-04-26T05:41:46.964Z,2.90
2023-04-26T05:44:17.098Z,3.23
2023-04-26T05:46:47.486Z,2.80
2023-04-26T05:49:18.346Z,3.20
2023-04-26T05:51:48.045Z,3.23
2023-04-26T05:54:17.059Z,3.23
2023-04-26T05:56:47.682Z,3.77
2023-04-26T05:59:16.452Z,3.10
2023-04-26T06:01:45.837Z,2.83
2023-04-26T06:04:15.593Z,3.00
2023-04-26T06:06:45.075Z,2.97
2023-04-26T06:09:13.872Z,3.10
2023-04-26T06:11:43.138Z,2.90
2023-04-26T06:14:26.948Z,3.70
2023-04-26T06:16:59.335Z,3.30
2023-04-26T06:19:29.328Z,3.20
2023-04-26T06:22:00.275Z,3.20
2023-04-26T06:24:29.449Z,3.30
2023-04-26T06:26:59.343Z,3.10
2023-04-26T06:29:34.610Z,3.40
2023-04-26T06:32:04.910Z,3.80
2023-04-26T06:34:33.622Z,3.40
2023-04-26T06:37:02.955Z,3.57
2023-04-26T06:39:37.623Z,3.40
2023-04-26T06:42:08.780Z,3.70
2023-04-26T06:44:40.349Z,3.17
2023-04-26T06:47:10.092Z,3.40
2023-04-26T06:49:40.260Z,3.17
2023-04-26T06:52:10.297Z,3.20
2023-04-26T06:54:53.666Z,3.63
2023-04-26T06:57:26.512Z,3.50
2023-04-26T06:59:58.365Z,3.50
2023-04-26T07:02:28.404Z,3.47
2023-04-26T07:05:02.251Z,3.30
2023-04-26T07:07:32.984Z,3.70
2023-04-26T07:10:02.818Z,3.20
2023-04-26T07:12:41.952Z,3.03
2023-04-26T07:15:14.947Z,3.93
2023-04-26T07:17:44.366Z,3.33
2023-04-26T07:20:16.110Z,3.73
2023-04-26T07:22:46.591Z,3.03
2023-04-26T07:25:16.180Z,3.87
2023-04-26T07:27:45.250Z,3.00
2023-04-26T07:30:17.001Z,3.40
2023-04-26T07:32:47.697Z,3.03
2023-04-26T07:35:20.805Z,3.00
2023-04-26T07:37:51.702Z,2.90
2023-04-26T07:40:23.154Z,3.10
2023-04-26T07:42:53.099Z,2.80
2023-04-26T07:45:25.373Z,2.60
2023-04-26T07:47:56.267Z,2.60
2023-04-26T07:50:27.601Z,3.30
2023-04-26T07:52:57.633Z,2.53
2023-04-26T07:55:31.558Z,2.77
2023-04-26T07:58:01.415Z,2.47
2023-04-26T08:00:39.446Z,2.70
2023-04-26T08:03:09.587Z,2.83
2023-04-26T08:05:38.911Z,2.63
2023-04-26T08:08:08.638Z,2.70
2023-04-26T08:10:52.607Z,2.60
2023-04-26T08:13:41.415Z,2.50
2023-04-26T08:16:16.345Z,2.70
2023-04-26T08:18:58.434Z,2.50
2023-04-26T08:21:31.351Z,3.00
2023-04-26T08:24:03.357Z,2.70
2023-04-26T08:26:32.178Z,2.67
2023-04-26T08:29:02.052Z,2.83
2023-04-26T08:31:38.798Z,2.80
2023-04-26T08:34:09.329Z,3.33
2023-04-26T08:36:53.697Z,3.10
2023-04-26T08:39:31.888Z,2.57
2023-04-26T08:42:11.950Z,3.10
2023-04-26T08:44:57.556Z,3.30
2023-04-26T08:47:48.449Z,2.93
2023-04-26T08:50:27.692Z,3.13
2023-04-26T08:52:59.614Z,3.80
2023-04-26T08:55:32.781Z,3.20
2023-04-26T08:58:05.849Z,3.23
2023-04-26T09:00:37.073Z,3.17
2023-04-26T09:03:07.992Z,3.60
2023-04-26T09:05:39.790Z,3.00
2023-04-26T09:08:10.995Z,2.90
2023-04-26T09:10:40.924Z,3.40
2023-04-26T09:13:10.077Z,3.17
2023-04-26T09:15:40.363Z,3.43
2023-04-26T09:18:22.306Z,3.00
2023-04-26T09:21:08.026Z,3.57
2023-04-26T09:23:37.869Z,3.80
2023-04-26T09:26:26.649Z,3.50
2023-04-26T09:29:21.419Z,3.40
2023-04-26T09:31:54.746Z,2.43
2023-04-26T09:34:26.585Z,2.00
2023-04-26T09:36:57.523Z,2.23
2023-04-26T09:39:34.586Z,2.10
2023-04-26T09:42:03.756Z,2.00
2023-04-26T09:44:33.708Z,2.37
2023-04-26T09:47:13.113Z,2.40
2023-04-26T09:49:53.189Z,2.40
2023-04-26T09:52:23.145Z,2.67
2023-04-26T09:54:55.553Z,2.50
2023-04-26T09:57:26.339Z,2.60
2023-04-26T09:59:57.772Z,2.70
2023-04-26T10:02:30.534Z,2.63
2023-04-26T10:05:02.268Z,3.53
2023-04-26T10:07:33.612Z,3.60
2023-04-26T10:10:07.676Z,3.30
2023-04-26T10:13:03.429Z,3.90
2023-04-26T10:15:51.355Z,3.70
2023-04-26T10:18:36.543Z,3.53
2023-04-26T10:21:17.962Z,3.90
2023-04-26T10:24:14.935Z,2.67
2023-04-26T10:27:01.700Z,2.70
2023-04-26T10:30:18.056Z,2.57
2023-04-26T10:33:24.602Z,3.20
2023-04-26T10:36:26.085Z,2.97
2023-04-26T10:39:30.276Z,2.80
2023-04-26T10:42:43.597Z,3.07
2023-04-26T10:45:34.972Z,2.90
2023-04-26T10:48:36.494Z,2.70
2023-04-26T10:51:46.137Z,3.40
2023-04-26T10:54:15.708Z,2.80
2023-04-26T10:56:55.115Z,2.70
2023-04-26T10:59:39.645Z,3.03
2023-04-26T11:02:13.906Z,3.57
2023-04-26T11:04:55.557Z,3.57
2023-04-26T11:07:42.879Z,3.00
2023-04-26T11:10:12.985Z,3.30
2023-04-26T11:12:44.479Z,3.50
2023-04-26T11:15:17.171Z,3.30
2023-04-26T11:17:46.593Z,3.33
2023-04-26T11:20:21.078Z,3.80
2023-04-26T11:22:51.612Z,3.70
2023-04-26T11:25:20.109Z,3.97
2023-04-26T11:27:48.494Z,3.10
2023-04-26T11:30:21.226Z,2.47
2023-04-26T11:32:49.757Z,2.37
2023-04-26T11:35:18.684Z,1.97
2023-04-26T11:37:49.644Z,1.77
2023-04-26T11:40:21.103Z,1.90
2023-04-26T11:42:49.721Z,2.13
2023-04-26T11:45:18.623Z,2.00
2023-04-26T11:47:47.896Z,2.40
2023-04-26T11:50:16.861Z,2.23
2023-04-26T11:52:45.404Z,1.97
2023-04-26T11:55:14.557Z,1.90
2023-04-26T11:57:44.420Z,2.30
2023-04-26T12:00:16.272Z,2.47
2023-04-26T12:02:50.209Z,2.60
2023-04-26T12:05:27.029Z,2.07
2023-04-26T12:07:57.968Z,2.20
2023-04-26T12:10:28.469Z,1.97
2023-04-26T12:13:01.120Z,2.03
2023-04-26T12:15:32.142Z,1.97
2023-04-26T12:18:07.489Z,2.10
2023-04-26T12:20:37.850Z,1.90
2023-04-26T12:23:09.000Z,1.67
2023-04-26T12:25:40.387Z,2.13
2023-04-26T12:28:14.172Z,2.00
2023-04-26T12:30:42.777Z,1.87
2023-04-26T12:33:17.130Z,2.20
2023-04-26T12:35:47.894Z,2.17
2023-04-26T12:38:16.837Z,3.03
2023-04-26T12:40:46.951Z,1.90
2023-04-26T12:43:17.112Z,1.97
2023-04-26T12:45:46.201Z,1.83
2023-04-26T12:48:14.847Z,2.00
2023-04-26T12:50:44.071Z,1.93
2023-04-26T12:53:12.890Z,2.20
2023-04-26T12:55:41.412Z,2.00
2023-04-26T12:58:09.789Z,1.93
2023-04-26T13:00:39.555Z,2.10
2023-04-26T13:03:08.335Z,2.00
2023-04-26T13:05:37.029Z,2.33
2023-04-26T13:08:05.523Z,2.77
2023-04-26T13:10:34.196Z,2.77
2023-04-26T13:13:02.866Z,2.70
2023-04-26T13:15:31.435Z,2.30
2023-04-26T13:18:01.362Z,2.13
2023-04-26T13:20:30.929Z,2.50
2023-04-26T13:22:59.716Z,2.30
2023-04-26T13:25:28.555Z,2.37
2023-04-26T13:27:57.297Z,2.60
2023-04-26T13:30:27.202Z,2.20
2023-04-26T13:32:56.979Z,2.17
2023-04-26T13:35:28.490Z,2.20
2023-04-26T13:37:57.129Z,2.90
2023-04-26T13:40:26.116Z,2.40
2023-04-26T13:42:54.628Z,2.57
2023-04-26T13:45:22.960Z,2.43
2023-04-26T13:47:51.352Z,2.60
2023-04-26T13:50:20.366Z,2.50
2023-04-26T13:52:51.097Z,2.70
2023-04-26T13:55:19.741Z,3.30
2023-04-26T13:57:48.082Z,2.60
2023-04-26T14:00:18.518Z,2.77
2023-04-26T14:02:47.079Z,2.87
2023-04-26T14:05:16.800Z,3.93
2023-04-26T14:07:45.517Z,3.23
2023-04-26T14:10:15.424Z,3.60
2023-04-26T14:12:43.838Z,3.83
2023-04-26T14:15:13.198Z,3.20
2023-04-26T14:17:42.158Z,3.57
2023-04-26T14:20:12.393Z,3.50
2023-04-26T14:22:40.830Z,3.50
2023-04-26T14:25:10.530Z,3.80
2023-04-26T14:27:40.699Z,3.30
2023-04-26T14:30:10.714Z,4.30
2023-04-26T14:32:39.181Z,3.70
2023-04-26T14:35:08.429Z,3.47
2023-04-26T14:37:36.884Z,3.67
2023-04-26T14:40:08.077Z,3.13
2023-04-26T14:42:36.821Z,2.70
2023-04-26T14:45:10.127Z,3.50
2023-04-26T14:47:38.719Z,2.90
2023-04-26T14:50:10.207Z,2.90
2023-04-26T14:52:38.997Z,2.90
2023-04-26T14:55:09.014Z,3.17
2023-04-26T14:57:37.352Z,2.83
2023-04-26T15:00:14.538Z,3.17
2023-04-26T15:02:43.115Z,2.80
2023-04-26T15:05:12.159Z,2.90
2023-04-26T15:07:41.083Z,2.90
2023-04-26T15:10:11.199Z,3.83
2023-04-26T15:12:39.658Z,2.67
2023-04-26T15:15:10.715Z,2.60
2023-04-26T15:17:39.210Z,2.90
2023-04-26T15:20:10.235Z,2.83
2023-04-26T15:22:39.100Z,3.17
2023-04-26T15:25:09.648Z,2.97
2023-04-26T15:27:38.303Z,2.83
2023-04-26T15:30:09.986Z,2.60
2023-04-26T15:32:38.471Z,2.60
2023-04-26T15:35:08.087Z,2.43
2023-04-26T15:37:38.821Z,2.50
2023-04-26T15:40:10.604Z,2.60
2023-04-26T15:42:39.816Z,2.70
2023-04-26T15:45:11.381Z,2.90
2023-04-26T15:47:39.905Z,3.07
2023-04-26T15:50:09.808Z,2.80
2023-04-26T15:52:39.684Z,3.03
2023-04-26T15:55:09.475Z,3.20
2023-04-26T15:57:38.673Z,3.60
2023-04-26T16:00:13.998Z,3.67
2023-04-26T16:02:44.586Z,2.77
2023-04-26T16:05:13.651Z,3.10
2023-04-26T16:07:42.450Z,2.80
2023-04-26T16:10:13.872Z,2.93
2023-04-26T16:12:44.815Z,3.10
2023-04-26T16:15:14.822Z,2.77
2023-04-26T16:17:44.534Z,2.90
2023-04-26T16:20:13.547Z,2.90
2023-04-26T16:22:42.277Z,2.40
2023-04-26T16:25:11.748Z,2.87
2023-04-26T16:27:40.251Z,2.57
2023-04-26T16:30:10.369Z,2.60
2023-04-26T16:32:40.127Z,2.90
2023-04-26T16:35:09.967Z,2.57
2023-04-26T16:37:39.954Z,2.60
2023-04-26T16:40:11.565Z,2.40
2023-04-26T16:42:43.322Z,2.50
2023-04-26T16:45:16.133Z,2.70
2023-04-26T16:47:46.558Z,2.60
2023-04-26T16:50:15.068Z,2.53
2023-04-26T16:52:44.550Z,2.33
2023-04-26T16:55:13.105Z,2.40
2023-04-26T16:57:41.976Z,2.23
2023-04-26T17:00:12.571Z,2.43
2023-04-26T17:02:42.098Z,2.10
2023-04-26T17:05:12.367Z,2.37
2023-04-26T17:07:40.904Z,2.40
2023-04-26T17:10:10.890Z,2.20
2023-04-26T17:12:39.458Z,2.93
2023-04-26T17:15:09.735Z,2.57
2023-04-26T17:17:38.371Z,2.40
2023-04-26T17:20:10.129Z,2.57
2023-04-26T17:22:41.258Z,2.37
2023-04-26T17:25:10.501Z,2.17
2023-04-26T17:27:39.100Z,2.20
2023-04-26T17:30:09.385Z,2.73
2023-04-26T17:32:37.940Z,2.40
2023-04-26T17:35:07.644Z,2.60
2023-04-26T17:37:36.167Z,2.50
2023-04-26T17:40:08.279Z,2.40
2023-04-26T17:42:36.979Z,2.60
2023-04-26T17:45:06.769Z,2.30
2023-04-26T17:47:35.217Z,2.20
2023-04-26T17:50:03.834Z,2.30
2023-04-26T17:52:32.582Z,2.40
2023-04-26T17:55:01.499Z,2.20
2023-04-26T17:57:31.325Z,2.00
2023-04-26T17:59:59.803Z,2.30
2023-04-26T18:02:28.518Z,2.60
2023-04-26T18:04:57.447Z,2.27
2023-04-26T18:07:26.555Z,3.00
2023-04-26T18:09:54.997Z,2.53
2023-04-26T18:12:23.612Z,2.80
2023-04-26T18:14:53.425Z,2.80
2023-04-26T18:17:22.335Z,2.30
2023-04-26T18:19:51.139Z,3.30
2023-04-26T18:22:20.421Z,3.37
2023-04-26T18:24:48.836Z,2.60
2023-04-26T18:27:17.272Z,3.50
2023-04-26T18:29:45.858Z,3.93
2023-04-26T18:32:15.710Z,3.40
2023-04-26T18:34:44.247Z,2.90
2023-04-26T18:37:12.726Z,2.93
2023-04-26T18:39:41.201Z,3.37
2023-04-26T18:42:09.555Z,3.00
2023-04-26T18:44:37.961Z,2.87
2023-04-26T18:47:06.653Z,3.13
2023-04-26T18:49:36.462Z,3.20
2023-04-26T18:52:08.736Z,2.80
2023-04-26T18:54:38.423Z,3.03
2023-04-26T18:57:06.886Z,3.23
2023-04-26T18:59:35.357Z,3.10
2023-04-26T19:02:05.312Z,3.13
2023-04-26T19:04:35.436Z,3.00
2023-04-26T19:07:04.005Z,3.27
2023-04-26T19:09:42.810Z,3.17
2023-04-26T19:12:19.194Z,3.10
2023-04-26T19:14:47.629Z,3.40
2023-04-26T19:17:16.065Z,3.30
2023-04-26T19:19:46.030Z,3.33
2023-04-26T19:22:14.491Z,4.00
2023-04-26T19:24:42.839Z,3.30
2023-04-26T19:27:11.516Z,3.70
2023-04-26T19:29:39.868Z,3.10
2023-04-26T19:32:10.142Z,3.57
2023-04-26T19:34:40.757Z,3.30
2023-04-26T19:37:10.581Z,3.20
2023-04-26T19:39:38.936Z,3.43
2023-04-26T19:42:07.486Z,2.70
2023-04-26T19:44:36.032Z,2.53
2023-04-26T19:47:05.289Z,2.67
2023-04-26T19:49:33.853Z,2.73
2023-04-26T19:52:03.104Z,2.40
2023-04-26T19:54:34.044Z,3.00
2023-04-26T19:57:03.877Z,2.93
2023-04-26T19:59:32.370Z,3.00
2023-04-26T20:02:01.046Z,3.13
2023-04-26T20:04:29.587Z,3.20
2023-04-26T20:06:58.519Z,3.50
2023-04-26T20:09:27.421Z,3.70
2023-04-26T20:11:58.176Z,3.67
2023-04-26T20:14:27.480Z,3.77
2023-04-26T20:16:56.150Z,3.90
2023-04-26T20:19:24.625Z,3.53
2023-04-26T20:21:53.015Z,4.87
2023-04-26T20:24:23.444Z,4.17
2023-04-26T20:26:52.251Z,4.27
2023-04-26T20:29:22.294Z,4.47
2023-04-26T20:31:51.103Z,3.93
2023-04-26T20:34:19.701Z,4.33
2023-04-26T20:36:51.198Z,3.83
2023-04-26T20:39:21.595Z,4.00
2023-04-26T20:41:50.195Z,4.23
2023-04-26T20:44:19.055Z,4.10
2023-04-26T20:46:48.923Z,4.13
2023-04-26T20:49:17.272Z,4.40
2023-04-26T20:51:45.972Z,4.53
2023-04-26T20:54:14.322Z,4.70
2023-04-26T20:56:42.767Z,4.77
2023-04-26T20:59:11.804Z,5.70
2023-04-26T21:01:40.458Z,5.00
2023-04-26T21:04:10.377Z,5.37
2023-04-26T21:06:39.440Z,4.70
2023-04-26T21:09:08.480Z,4.90
2023-04-26T21:11:37.234Z,5.40
2023-04-26T21:14:06.871Z,5.90
2023-04-26T21:16:35.399Z,4.90
2023-04-26T21:19:05.134Z,5.10
2023-04-26T21:21:35.074Z,4.73
2023-04-26T21:24:04.240Z,4.70
2023-04-26T21:26:32.488Z,4.67
2023-04-26T21:29:01.004Z,4.17
2023-04-26T21:31:29.436Z,4.53
2023-04-26T21:33:58.106Z,4.80
2023-04-26T21:36:26.762Z,5.33
2023-04-26T21:38:59.288Z,5.07
2023-04-26T21:41:27.747Z,4.97
2023-04-26T21:43:57.214Z,5.50
2023-04-26T21:46:26.506Z,6.10
2023-04-26T21:48:55.240Z,5.97
2023-04-26T21:51:23.742Z,6.17
2023-04-26T21:53:52.384Z,6.60
2023-04-26T21:56:22.232Z,6.93
2023-04-26T21:58:50.606Z,6.07
2023-04-26T22:01:19.137Z,5.07
2023-04-26T22:03:47.666Z,5.83
2023-04-26T22:06:16.151Z,5.10
2023-04-26T22:08:44.590Z,4.70
2023-04-26T22:11:13.193Z,5.20
2023-04-26T22:13:42.921Z,5.20
2023-04-26T22:16:11.387Z,5.40
2023-04-26T22:18:39.847Z,5.10
2023-04-26T22:21:08.335Z,5.43
2023-04-26T22:23:36.751Z,5.13
2023-04-26T22:26:05.205Z,5.63
2023-04-26T22:28:33.665Z,5.50
2023-04-26T22:31:03.509Z,5.57
2023-04-26T22:33:31.996Z,5.63
2023-04-26T22:36:00.456Z,5.30
2023-04-26T22:38:29.052Z,5.87
2023-04-26T22:40:57.646Z,5.27
2023-04-26T22:43:26.306Z,5.33
2023-04-26T22:45:54.804Z,5.30
2023-04-26T22:48:24.641Z,6.07
2023-04-26T22:50:53.120Z,5.80
2023-04-26T22:53:22.666Z,5.33
2023-04-26T22:55:51.872Z,5.93
2023-04-26T22:58:24.090Z,5.50
2023-04-26T23:00:53.094Z,5.53
2023-04-26T23:03:23.759Z,5.50
2023-04-26T23:05:52.808Z,5.63
2023-04-26T23:08:22.804Z,5.83
2023-04-26T23:10:51.703Z,6.17
2023-04-26T23:13:21.813Z,5.83
2023-04-26T23:15:50.613Z,5.30
2023-04-26T23:18:20.857Z,6.17
2023-04-26T23:20:51.732Z,6.60
2023-04-26T23:23:20.511Z,5.73
2023-04-26T23:25:51.239Z,5.73
2023-04-26T23:28:20.471Z,6.27
2023-04-26T23:30:50.794Z,5.53
2023-04-26T23:33:20.220Z,5.87
2023-04-26T23:35:50.586Z,5.73
2023-04-26T23:38:20.767Z,5.90
2023-04-26T23:40:49.340Z,5.50
2023-04-26T23:43:17.747Z,6.23
2023-04-26T23:45:48.248Z,5.90
2023-04-26T23:48:17.961Z,5.97
2023-04-26T23:50:46.345Z,6.30
2023-04-26T23:53:16.218Z,6.37
2023-04-26T23:55:44.616Z,5.90
2023-04-26T23:58:13.013Z,6.17
